createdAt,value
2022-10-11T00:00:18.862Z,101718.75
2022-10-11T00:02:45.910Z,101713.56
2022-10-11T00:05:12.841Z,101715.50
2022-10-11T00:07:39.842Z,101729.00
2022-10-11T00:10:08.438Z,101722.09
2022-10-11T00:12:36.936Z,101732.09
2022-10-11T00:15:06.737Z,101725.97
2022-10-11T00:17:34.273Z,101725.19
2022-10-11T00:20:01.452Z,101729.75
2022-10-11T00:22:28.373Z,101723.69
2022-10-11T00:24:55.454Z,101731.88
2022-10-11T00:27:22.470Z,101731.13
2022-10-11T00:29:49.471Z,101732.31
2022-10-11T00:32:16.644Z,101715.38
2022-10-11T00:34:43.660Z,101728.06
2022-10-11T00:37:10.573Z,101721.06
2022-10-11T00:39:37.582Z,101725.72
2022-10-11T00:42:05.067Z,101718.69
2022-10-11T00:44:33.624Z,101721.59
2022-10-11T00:47:10.379Z,101711.88
2022-10-11T00:49:44.209Z,101711.97
2022-10-11T00:54:58.696Z,101708.63
2022-10-11T00:57:30.277Z,101711.41
2022-10-11T00:59:58.886Z,101703.44
2022-10-11T01:02:26.470Z,101705.38
2022-10-11T01:05:11.312Z,101709.03
2022-10-11T01:07:43.262Z,101707.53
2022-10-11T01:10:10.659Z,101698.66
2022-10-11T01:12:54.743Z,101701.38
2022-10-11T01:15:36.128Z,101707.94
2022-10-11T01:18:24.908Z,101704.47
2022-10-11T01:21:24.250Z,101704.66
2022-10-11T01:24:34.256Z,101706.78
2022-10-11T01:27:25.659Z,101707.00
2022-10-11T01:30:23.329Z,101711.59
2022-10-11T01:33:32.906Z,101703.63
2022-10-11T01:36:27.698Z,101706.34
2022-10-11T01:39:10.734Z,101703.94
2022-10-11T01:41:44.142Z,101700.38
2022-10-11T01:44:13.256Z,101690.66
2022-10-11T01:46:41.046Z,101690.78
2022-10-11T01:49:08.876Z,101682.88
2022-10-11T01:51:47.099Z,101682.03
2022-10-11T01:55:08.170Z,101679.41
2022-10-11T01:58:11.790Z,101682.22
2022-10-11T02:00:53.317Z,101679.63
2022-10-11T02:03:23.034Z,101671.53
2022-10-11T02:06:20.802Z,101680.47
2022-10-11T02:08:53.482Z,101675.09
2022-10-11T02:11:33.426Z,101675.09
2022-10-11T02:14:09.728Z,101673.16
2022-10-11T02:16:46.183Z,101672.19
2022-10-11T02:19:17.262Z,101671.25
2022-10-11T02:21:48.116Z,101665.88
2022-10-11T02:24:25.255Z,101669.41
2022-10-11T02:26:56.012Z,101670.28
2022-10-11T02:29:27.549Z,101673.94
2022-10-11T02:31:57.373Z,101666.81
2022-10-11T02:34:40.253Z,101672.19
2022-10-11T02:37:33.041Z,101661.53
2022-10-11T02:40:28.282Z,101657.97
2022-10-11T02:43:08.014Z,101650.00
2022-10-11T02:45:41.350Z,101657.22
2022-10-11T02:48:11.577Z,101655.50
2022-10-11T02:50:42.911Z,101651.03
2022-10-11T02:53:10.109Z,101659.13
2022-10-11T02:55:37.337Z,101657.31
2022-10-11T02:58:04.516Z,101656.56
2022-10-11T03:00:31.734Z,101661.94
2022-10-11T03:02:58.746Z,101661.94
2022-10-11T03:05:25.945Z,101655.69
2022-10-11T03:07:53.040Z,101655.78
2022-10-11T03:10:19.984Z,101659.31
2022-10-11T03:12:47.008Z,101656.75
2022-10-11T03:15:13.978Z,101663.97
2022-10-11T03:17:40.947Z,101664.84
2022-10-11T03:20:08.613Z,101670.22
2022-10-11T03:22:35.836Z,101664.94
2022-10-11T03:25:04.648Z,101666.88
2022-10-11T03:27:34.290Z,101673.44
2022-10-11T03:30:02.041Z,101671.00
2022-10-11T03:32:29.582Z,101672.97
2022-10-11T03:34:57.017Z,101668.63
2022-10-11T03:37:25.497Z,101676.78
2022-10-11T03:39:52.852Z,101672.38
2022-10-11T03:42:20.054Z,101670.66
2022-10-11T03:44:49.551Z,101672.69
2022-10-11T03:47:17.201Z,101679.03
2022-10-11T03:49:44.202Z,101679.88
2022-10-11T03:52:11.929Z,101679.88
2022-10-11T03:54:39.043Z,101687.09
2022-10-11T03:57:06.596Z,101672.78
2022-10-11T03:59:33.611Z,101678.28
2022-10-11T04:02:00.760Z,101685.38
2022-10-11T04:04:27.967Z,101694.44
2022-10-11T04:06:55.101Z,101681.91
2022-10-11T04:09:22.145Z,101677.50
2022-10-11T04:11:49.166Z,101678.47
2022-10-11T04:14:17.192Z,101674.03
2022-10-11T04:16:44.255Z,101683.94
2022-10-11T04:19:11.294Z,101678.56
2022-10-11T04:21:38.325Z,101675.84
2022-10-11T04:24:06.102Z,101675.13
2022-10-11T04:26:33.738Z,101668.09
2022-10-11T04:29:00.881Z,101674.53
2022-10-11T04:31:27.857Z,101681.75
2022-10-11T04:33:54.848Z,101676.25
2022-10-11T04:36:21.918Z,101684.31
2022-10-11T04:38:49.766Z,101680.69
2022-10-11T04:41:17.027Z,101683.47
2022-10-11T04:43:43.939Z,101680.78
2022-10-11T04:46:11.558Z,101680.78
2022-10-11T04:48:39.092Z,101683.47
2022-10-11T04:51:06.265Z,101687.91
2022-10-11T04:53:34.400Z,101685.28
2022-10-11T04:56:11.057Z,101681.63
2022-10-11T04:58:41.146Z,101677.22
2022-10-11T05:01:09.460Z,101678.19
2022-10-11T05:03:37.806Z,101680.22
2022-10-11T05:06:06.207Z,101682.91
2022-10-11T05:08:34.297Z,101680.41
2022-10-11T05:11:08.259Z,101675.97
2022-10-11T05:13:36.220Z,101677.81
2022-10-11T05:16:09.558Z,101668.19
2022-10-11T05:18:38.377Z,101677.13
2022-10-11T05:21:09.251Z,101677.13
2022-10-11T05:23:37.277Z,101678.09
2022-10-11T05:26:05.257Z,101679.81
2022-10-11T05:28:33.349Z,101690.59
2022-10-11T05:31:00.789Z,101684.25
2022-10-11T05:33:27.997Z,101687.72
2022-10-11T05:35:55.435Z,101685.88
2022-10-11T05:38:23.097Z,101695.78
2022-10-11T05:40:50.457Z,101698.59
2022-10-11T05:43:18.720Z,101699.44
2022-10-11T05:45:46.674Z,101697.50
2022-10-11T05:48:14.152Z,101695.69
2022-10-11T05:50:41.313Z,101694.81
2022-10-11T05:53:08.415Z,101700.13
2022-10-11T05:55:40.542Z,101708.28
2022-10-11T05:58:11.118Z,101706.53
2022-10-11T06:00:38.362Z,101708.38
2022-10-11T06:03:07.943Z,101708.47
2022-10-11T06:05:36.203Z,101711.34
2022-10-11T06:08:06.662Z,101716.94
2022-10-11T06:10:34.538Z,101716.25
2022-10-11T06:13:01.747Z,101716.16
2022-10-11T06:15:29.413Z,101713.38
2022-10-11T06:17:57.950Z,101720.50
2022-10-11T06:20:27.012Z,101722.09
2022-10-11T06:22:56.061Z,101725.59
2022-10-11T06:25:23.209Z,101731.81
2022-10-11T06:27:50.330Z,101725.69
2022-10-11T06:30:18.132Z,101730.19
2022-10-11T06:32:45.319Z,101730.19
2022-10-11T06:35:12.520Z,101730.00
2022-10-11T06:37:39.664Z,101734.53
2022-10-11T06:40:07.594Z,101740.75
2022-10-11T06:42:34.629Z,101753.41
2022-10-11T06:45:01.780Z,101750.59
2022-10-11T06:47:29.278Z,101760.31
2022-10-11T06:49:56.567Z,101756.75
2022-10-11T06:52:25.314Z,101752.88
2022-10-11T06:54:52.454Z,101760.84
2022-10-11T06:57:19.958Z,101766.41
2022-10-11T06:59:47.052Z,101760.84
2022-10-11T07:02:14.125Z,101765.94
2022-10-11T07:04:41.265Z,101774.50
2022-10-11T07:07:08.490Z,101775.38
2022-10-11T07:09:35.720Z,101770.78
2022-10-11T07:12:02.854Z,101775.19
2022-10-11T07:14:30.144Z,101771.53
2022-10-11T07:16:57.662Z,101776.81
2022-10-11T07:19:24.999Z,101780.66
2022-10-11T07:21:52.159Z,101782.09
2022-10-11T07:24:19.212Z,101783.75
2022-10-11T07:26:46.380Z,101789.91
2022-10-11T07:29:13.799Z,101790.16
2022-10-11T07:31:43.607Z,101790.00
2022-10-11T07:34:11.264Z,101791.53
2022-10-11T07:36:38.321Z,101785.00
2022-10-11T07:39:08.346Z,101795.38
2022-10-11T07:41:38.160Z,101793.28
2022-10-11T07:44:08.011Z,101793.88
2022-10-11T07:46:35.148Z,101795.38
2022-10-11T07:49:02.387Z,101800.28
2022-10-11T07:51:29.422Z,101799.44
2022-10-11T07:53:57.326Z,101797.78
2022-10-11T07:56:28.230Z,101800.19
2022-10-11T07:59:01.566Z,101799.91
2022-10-11T08:01:30.155Z,101798.94
2022-10-11T08:03:57.793Z,101803.75
2022-10-11T08:06:31.734Z,101801.44
2022-10-11T08:09:00.629Z,101797.69
2022-10-11T08:11:35.835Z,101811.44
2022-10-11T08:14:08.638Z,101803.06
2022-10-11T08:16:37.609Z,101798.16
2022-10-11T08:19:05.977Z,101807.56
2022-10-11T08:21:34.033Z,101803.81
2022-10-11T08:24:03.814Z,101792.75
2022-10-11T08:26:32.462Z,101801.22
2022-10-11T08:29:04.355Z,101798.97
2022-10-11T08:31:33.457Z,101803.28
2022-10-11T08:34:00.591Z,101795.56
2022-10-11T08:36:28.051Z,101791.81
2022-10-11T08:38:55.090Z,101795.91
2022-10-11T08:41:26.995Z,101800.25
2022-10-11T08:45:05.592Z,101793.00
2022-10-11T08:47:31.553Z,101799.50
2022-10-11T08:50:00.003Z,101801.75
2022-10-11T08:52:49.222Z,101800.59
2022-10-11T08:55:45.869Z,101799.63
2022-10-11T08:58:18.439Z,101790.47
2022-10-11T09:00:51.855Z,101790.56
2022-10-11T09:03:44.176Z,101790.91
2022-10-11T09:06:50.539Z,101793.81
2022-10-11T09:09:49.758Z,101788.31
2022-10-11T09:12:57.356Z,101796.31
2022-10-11T09:15:55.711Z,101791.97
2022-10-11T09:18:42.772Z,101793.50
2022-10-11T09:21:52.808Z,101798.19
2022-10-11T09:24:57.319Z,101790.41
2022-10-11T09:27:50.378Z,101791.63
2022-10-11T09:30:21.200Z,101790.88
2022-10-11T09:33:33.818Z,101796.53
2022-10-11T09:36:04.563Z,101800.53
2022-10-11T09:39:08.062Z,101794.28
2022-10-11T09:41:58.025Z,101793.00
2022-10-11T09:44:28.875Z,101797.84
2022-10-11T09:46:57.866Z,101794.06
2022-10-11T09:49:41.234Z,101797.41
2022-10-11T09:52:23.821Z,101796.75
2022-10-11T09:55:02.800Z,101788.31
2022-10-11T09:57:39.460Z,101781.41
2022-10-11T10:00:22.087Z,101781.75
2022-10-11T10:02:57.997Z,101781.53
2022-10-11T10:05:37.551Z,101783.34
2022-10-11T10:08:10.370Z,101787.56
2022-10-11T10:10:45.261Z,101786.03
2022-10-11T10:13:36.175Z,101793.81
2022-10-11T10:16:04.467Z,101789.13
2022-10-11T10:18:42.234Z,101787.84
2022-10-11T10:21:15.327Z,101772.16
2022-10-11T10:23:43.433Z,101779.06
2022-10-11T10:26:20.281Z,101785.56
2022-10-11T10:29:16.825Z,101788.66
2022-10-11T10:32:13.253Z,101786.81
2022-10-11T10:35:07.614Z,101787.25
2022-10-11T10:38:02.983Z,101787.25
2022-10-11T10:40:48.520Z,101789.28
2022-10-11T10:43:22.397Z,101789.06
2022-10-11T10:46:11.758Z,101779.25
2022-10-11T10:49:52.045Z,101772.25
2022-10-11T10:53:04.138Z,101768.78
2022-10-11T10:55:42.492Z,101773.38
2022-10-11T10:58:38.388Z,101775.16
2022-10-11T11:01:27.688Z,101768.41
2022-10-11T11:04:09.887Z,101772.47
2022-10-11T11:06:59.664Z,101773.00
2022-10-11T11:09:47.762Z,101767.50
2022-10-11T11:13:08.534Z,101764.81
2022-10-11T11:16:00.929Z,101767.56
2022-10-11T11:18:39.081Z,101766.34
2022-10-11T11:21:20.461Z,101769.47
2022-10-11T11:24:22.179Z,101767.97
2022-10-11T11:27:01.648Z,101755.53
2022-10-11T11:30:06.091Z,101755.28
2022-10-11T11:33:08.363Z,101754.91
2022-10-11T11:35:47.805Z,101747.88
2022-10-11T11:38:42.164Z,101749.34
2022-10-11T11:41:19.901Z,101743.25
2022-10-11T11:44:12.155Z,101737.94
2022-10-11T11:47:06.342Z,101746.06
2022-10-11T11:49:41.858Z,101739.59
2022-10-11T11:52:23.078Z,101736.06
2022-10-11T11:55:26.133Z,101737.16
2022-10-11T11:58:08.041Z,101730.97
2022-10-11T12:00:59.129Z,101726.53
2022-10-11T12:03:32.749Z,101725.13
2022-10-11T12:06:14.952Z,101731.91
2022-10-11T12:08:47.045Z,101734.34
2022-10-11T12:11:38.271Z,101718.06
2022-10-11T12:14:36.243Z,101731.97
2022-10-11T12:17:13.433Z,101728.72
2022-10-11T12:19:58.745Z,101726.59
2022-10-11T12:22:28.585Z,101723.94
2022-10-11T12:25:13.790Z,101716.84
2022-10-11T12:27:47.678Z,101718.47
2022-10-11T12:30:50.778Z,101721.06
2022-10-11T12:33:22.965Z,101720.28
2022-10-11T12:35:52.894Z,101707.72
2022-10-11T12:38:35.784Z,101712.75
2022-10-11T12:41:16.862Z,101713.19
2022-10-11T12:43:50.061Z,101712.91
2022-10-11T12:46:29.667Z,101703.19
2022-10-11T12:49:33.712Z,101704.75
2022-10-11T12:52:24.858Z,101701.75
2022-10-11T12:55:27.120Z,101703.47
2022-10-11T12:58:12.808Z,101698.47
2022-10-11T13:00:40.109Z,101696.31
2022-10-11T13:03:44.029Z,101699.34
2022-10-11T13:06:28.373Z,101696.06
2022-10-11T13:09:39.383Z,101702.06
2022-10-11T13:12:13.877Z,101690.03
2022-10-11T13:14:50.891Z,101681.59
2022-10-11T13:17:38.193Z,101682.91
2022-10-11T13:20:31.303Z,101675.03
2022-10-11T13:22:58.714Z,101668.44
2022-10-11T13:25:28.838Z,101679.19
2022-10-11T13:28:01.425Z,101671.59
2022-10-11T13:30:34.730Z,101667.59
2022-10-11T13:33:08.702Z,101668.03
2022-10-11T13:35:38.600Z,101668.50
2022-10-11T13:38:09.340Z,101669.06
2022-10-11T13:40:38.204Z,101662.47
2022-10-11T13:43:05.942Z,101655.72
2022-10-11T13:45:35.855Z,101651.13
2022-10-11T13:48:03.226Z,101653.84
2022-10-11T13:50:33.661Z,101645.25
2022-10-11T13:53:11.679Z,101651.25
2022-10-11T13:55:56.710Z,101647.94
2022-10-11T13:58:32.571Z,101643.06
2022-10-11T14:01:08.378Z,101648.94
2022-10-11T14:03:47.312Z,101641.06
2022-10-11T14:06:14.523Z,101643.78
2022-10-11T14:08:48.610Z,101645.19
2022-10-11T14:11:16.536Z,101638.75
2022-10-11T14:13:52.419Z,101638.47
2022-10-11T14:16:19.505Z,101635.59
2022-10-11T14:19:00.111Z,101637.03
2022-10-11T14:21:45.937Z,101625.75
2022-10-11T14:24:14.701Z,101618.16
2022-10-11T14:26:44.980Z,101624.75
2022-10-11T14:29:25.077Z,101620.59
2022-10-11T14:31:56.369Z,101625.50
2022-10-11T14:34:25.959Z,101618.75
2022-10-11T14:36:53.888Z,101629.22
2022-10-11T14:39:27.681Z,101617.06
2022-10-11T14:41:54.768Z,101617.88
2022-10-11T14:44:22.765Z,101613.59
2022-10-11T14:46:54.590Z,101623.06
2022-10-11T14:49:30.579Z,101621.63
2022-10-11T14:51:59.162Z,101616.47
2022-10-11T14:54:28.172Z,101625.78
2022-10-11T14:56:58.348Z,101622.34
2022-10-11T14:59:31.641Z,101615.31
2022-10-11T15:01:58.862Z,101620.91
2022-10-11T15:04:27.796Z,101620.91
2022-10-11T15:06:57.717Z,101611.03
2022-10-11T15:09:29.081Z,101615.75
2022-10-11T15:11:57.045Z,101616.75
2022-10-11T15:14:25.190Z,101610.59
2022-10-11T15:16:52.680Z,101617.91
2022-10-11T15:19:25.670Z,101618.03
2022-10-11T15:21:53.172Z,101612.75
2022-10-11T15:24:20.239Z,101614.59
2022-10-11T15:26:48.357Z,101606.72
2022-10-11T15:29:17.911Z,101604.13
2022-10-11T15:31:45.058Z,101604.41
2022-10-11T15:34:12.374Z,101606.28
2022-10-11T15:36:39.391Z,101605.59
2022-10-11T15:39:27.019Z,101600.16
2022-10-11T15:41:54.460Z,101606.72
2022-10-11T15:44:21.400Z,101607.00
2022-10-11T15:46:48.442Z,101608.88
2022-10-11T15:49:15.854Z,101610.84
2022-10-11T15:51:43.214Z,101607.56
2022-10-11T15:54:10.178Z,101610.44
2022-10-11T15:56:37.159Z,101608.84
2022-10-11T15:59:04.647Z,101600.97
2022-10-11T16:01:32.096Z,101602.13
2022-10-11T16:03:59.151Z,101605.28
2022-10-11T16:06:26.302Z,101604.69
2022-10-11T16:08:53.698Z,101602.34
2022-10-11T16:11:20.678Z,101601.91
2022-10-11T16:13:49.121Z,101597.75
2022-10-11T16:16:16.105Z,101598.28
2022-10-11T16:18:43.180Z,101600.44
2022-10-11T16:21:15.638Z,101600.97
2022-10-11T16:23:42.822Z,101597.84
2022-10-11T16:26:14.813Z,101604.66
2022-10-11T16:28:42.413Z,101607.06
2022-10-11T16:31:13.596Z,101607.63
2022-10-11T16:33:45.882Z,101610.03
2022-10-11T16:36:32.624Z,101608.69
2022-10-11T16:39:02.788Z,101615.56
2022-10-11T16:41:29.868Z,101614.22
2022-10-11T16:43:56.898Z,101610.31
2022-10-11T16:46:24.542Z,101607.13
2022-10-11T16:48:56.033Z,101608.66
2022-10-11T16:51:24.249Z,101618.19
2022-10-11T16:53:53.442Z,101620.31
2022-10-11T16:56:22.803Z,101616.41
2022-10-11T16:58:53.169Z,101621.25
2022-10-11T17:01:20.980Z,101624.34
2022-10-11T17:03:50.172Z,101631.16
2022-10-11T17:06:17.958Z,101638.72
2022-10-11T17:08:45.139Z,101638.22
2022-10-11T17:11:12.378Z,101640.34
2022-10-11T17:13:39.286Z,101637.16
2022-10-11T17:16:07.235Z,101636.69
2022-10-11T17:18:34.421Z,101643.50
2022-10-11T17:21:05.501Z,101643.00
2022-10-11T17:23:35.062Z,101642.53
2022-10-11T17:26:10.774Z,101652.75
2022-10-11T17:28:38.906Z,101653.25
2022-10-11T17:31:07.996Z,101646.38
2022-10-11T17:33:35.234Z,101654.63
2022-10-11T17:36:16.094Z,101657.56
2022-10-11T17:38:44.280Z,101661.53
2022-10-11T17:41:11.977Z,101668.31
2022-10-11T17:43:39.108Z,101669.41
2022-10-11T17:46:08.932Z,101672.41
2022-10-11T17:48:39.191Z,101670.81
2022-10-11T17:51:12.841Z,101666.50
2022-10-11T17:53:40.937Z,101670.44
2022-10-11T17:56:14.386Z,101678.81
2022-10-11T17:58:43.045Z,101670.94
2022-10-11T18:01:15.416Z,101666.53
2022-10-11T18:03:44.060Z,101668.47
2022-10-11T18:06:13.513Z,101669.59
2022-10-11T18:08:41.220Z,101675.25
2022-10-11T18:11:15.445Z,101668.22
2022-10-11T18:13:46.121Z,101667.75
2022-10-11T18:16:16.897Z,101662.56
2022-10-11T18:18:44.485Z,101665.53
2022-10-11T18:21:12.605Z,101657.66
2022-10-11T18:23:41.004Z,101666.00
2022-10-11T18:26:23.524Z,101666.41
2022-10-11T18:28:55.265Z,101664.78
2022-10-11T18:31:29.242Z,101667.75
2022-10-11T18:33:56.193Z,101665.63
2022-10-11T18:36:27.695Z,101662.03
2022-10-11T18:38:59.898Z,101661.31
2022-10-11T18:41:31.924Z,101664.97
2022-10-11T18:44:03.953Z,101675.94
2022-10-11T18:46:32.628Z,101678.13
2022-10-11T18:49:02.223Z,101671.00
2022-10-11T18:51:36.609Z,101679.25
2022-10-11T18:54:04.931Z,101684.91
2022-10-11T18:56:34.711Z,101679.72
2022-10-11T18:59:01.977Z,101684.53
2022-10-11T19:01:33.660Z,101687.47
2022-10-11T19:04:03.668Z,101684.25
2022-10-11T19:06:38.078Z,101687.19
2022-10-11T19:09:10.154Z,101691.97
2022-10-11T19:11:38.281Z,101685.09
2022-10-11T19:14:14.551Z,101696.13
2022-10-11T19:16:46.289Z,101689.34
2022-10-11T19:19:13.725Z,101684.16
2022-10-11T19:21:41.060Z,101690.66
2022-10-11T19:24:08.942Z,101691.78
2022-10-11T19:26:39.555Z,101689.19
2022-10-11T19:29:16.596Z,101702.22
2022-10-11T19:32:04.137Z,101702.44
2022-10-11T19:34:32.677Z,101693.69
2022-10-11T19:37:01.267Z,101700.06
2022-10-11T19:39:29.606Z,101701.91
2022-10-11T19:41:56.814Z,101709.41
2022-10-11T19:44:23.874Z,101706.78
2022-10-11T19:46:52.416Z,101710.47
2022-10-11T19:49:26.000Z,101711.56
2022-10-11T19:51:55.175Z,101710.03
2022-10-11T19:54:22.363Z,101711.13
2022-10-11T19:56:49.561Z,101712.13
2022-10-11T19:59:17.455Z,101715.03
2022-10-11T20:01:51.929Z,101717.13
2022-10-11T20:07:08.303Z,101719.28
2022-10-11T20:09:35.171Z,101718.56
2022-10-11T20:12:02.226Z,101725.03
2022-10-11T20:14:29.493Z,101733.38
2022-10-11T20:16:56.440Z,101727.88
2022-10-11T20:19:30.572Z,101729.69
2022-10-11T20:22:00.632Z,101730.91
2022-10-11T20:24:32.442Z,101737.16
2022-10-11T20:27:02.349Z,101735.53
2022-10-11T20:29:29.301Z,101743.63
2022-10-11T20:31:56.491Z,101742.16
2022-10-11T20:34:23.569Z,101745.94
2022-10-11T20:36:50.970Z,101751.56
2022-10-11T20:39:18.113Z,101748.22
2022-10-11T20:41:45.146Z,101752.75
2022-10-11T20:44:15.793Z,101752.97
2022-10-11T20:46:42.779Z,101749.53
2022-10-11T20:49:11.447Z,101752.25
2022-10-11T20:51:41.543Z,101756.88
2022-10-11T20:54:09.285Z,101752.56
2022-10-11T20:56:37.756Z,101762.63
2022-10-11T20:59:06.351Z,101758.19
2022-10-11T21:01:40.373Z,101758.41
2022-10-11T21:04:09.765Z,101763.38
2022-10-11T21:06:36.794Z,101756.25
2022-10-11T21:09:04.374Z,101759.94
2022-10-11T21:11:33.580Z,101770.84
2022-10-11T21:14:04.679Z,101764.78
2022-10-11T21:16:33.603Z,101775.72
2022-10-11T21:19:02.185Z,101772.25
2022-10-11T21:21:30.983Z,101767.91
2022-10-11T21:24:00.812Z,101766.06
2022-10-11T21:26:30.185Z,101770.75
2022-10-11T21:28:59.389Z,101774.59
2022-10-11T21:31:31.025Z,101762.94
2022-10-11T21:34:01.222Z,101762.09
2022-10-11T21:36:28.900Z,101757.75
2022-10-11T21:38:56.553Z,101759.72
2022-10-11T21:41:25.937Z,101759.81
2022-10-11T21:43:53.254Z,101764.47
2022-10-11T21:47:01.095Z,101759.16
2022-10-11T21:49:20.208Z,101756.66
2022-10-11T21:51:47.157Z,101766.59
2022-10-11T21:54:14.517Z,101759.47
2022-10-11T21:56:41.952Z,101765.72
2022-10-11T21:59:12.379Z,101763.13
2022-10-11T22:01:41.096Z,101765.38
2022-10-11T22:04:08.557Z,101763.78
2022-10-11T22:06:36.699Z,101769.28
2022-10-11T22:09:05.538Z,101770.25
2022-10-11T22:11:32.739Z,101764.00
2022-10-11T22:14:00.082Z,101765.94
2022-10-11T22:16:27.063Z,101769.59
2022-10-11T22:18:54.382Z,101761.50
2022-10-11T22:21:24.901Z,101759.03
2022-10-11T22:23:53.784Z,101766.34
2022-10-11T22:26:25.049Z,101760.09
2022-10-11T22:28:53.450Z,101762.91
2022-10-11T22:31:21.993Z,101757.72
2022-10-11T22:33:53.887Z,101757.72
2022-10-11T22:36:21.563Z,101759.72
2022-10-11T22:38:48.908Z,101764.38
2022-10-11T22:41:15.993Z,101752.81
2022-10-11T22:43:43.218Z,101764.47
2022-10-11T22:46:10.774Z,101760.91
2022-10-11T22:48:37.967Z,101762.88
2022-10-11T22:51:05.402Z,101775.47
2022-10-11T22:53:32.516Z,101778.38
2022-10-11T22:55:59.739Z,101767.72
2022-10-11T22:58:27.495Z,101771.47
2022-10-11T23:00:54.657Z,101771.47
2022-10-11T23:03:21.597Z,101768.03
2022-10-11T23:05:56.979Z,101770.06
2022-10-11T23:08:24.594Z,101768.53
2022-10-11T23:10:52.167Z,101768.53
2022-10-11T23:13:19.833Z,101769.72
2022-10-11T23:15:46.879Z,101768.09
2022-10-11T23:18:16.684Z,101766.34
2022-10-11T23:20:44.261Z,101774.66
2022-10-11T23:23:11.334Z,101774.84
2022-10-11T23:25:38.495Z,101766.88
2022-10-11T23:28:05.552Z,101775.06
2022-10-11T23:30:32.759Z,101766.41
2022-10-11T23:32:59.679Z,101767.38
2022-10-11T23:35:26.912Z,101763.03
2022-10-11T23:37:54.776Z,101771.13
2022-10-11T23:40:21.875Z,101764.03
2022-10-11T23:42:48.873Z,101768.75
2022-10-11T23:45:15.918Z,101770.47
2022-10-11T23:47:42.837Z,101774.16
2022-10-11T23:50:10.290Z,101769.63
2022-10-11T23:52:37.164Z,101772.44
2022-10-11T23:55:04.422Z,101769.81
2022-10-11T23:57:31.436Z,101775.19
2022-10-11T23:59:58.286Z,101774.34
